Aérodrome :
LOGIN :

S'inscrire | Disclaimer

   EN    FR    IT 

 










Légende :    VFR   VFR Marginal   IFR   IFR Intensif   IFR Très Intensif
Visi : 
Plafond : 
>= 8 km
>= 3000ft
5 à 8 km
1000 à 3000 ft
1500m à 5 km
500 à 1000 ft
800 à 1500m
200 à 500 ft
< 800m
< 200 ft
Symboles :   Orages  Brouillard  Fortes neiges  Fortes précipitations  Vent > 20 kt
SIGMETs :   Divers  Orages  Givrage  Turbulence  Onde Orograph.  Cendres Volcan.






- Altitude de l'aérodrome : 502 ft
- Code IATA : ORK


EICK - Cork

DERNIER METAR :
  • 190630Z 28007KT 9999 FEW015 SCT050 07/06 Q1001 NOSIG

METARs EXPIRÉS :
  • 190600Z 29008KT 9999 FEW016 SCT050 07/06 Q1001 NOSIG
  • 190530Z 30007KT 9999 FEW016 SCT050 07/06 Q1001 NOSIG
  • 190500Z 30008KT 9999 FEW016 BKN050 07/06 Q1000 NOSIG
  • 190430Z 30009KT 9999 FEW016 BKN060 07/06 Q1000 NOSIG
  • 190400Z 30009KT 9999 FEW016 BKN060 07/06 Q1000 NOSIG

TAF TAF EICK
Valide du 19 à 06h jusqu'au 20 à 06h UTC


190500Z 1906/2006 30008KT 9999 FEW020 BKN050
TEMPO 1906/1909 3000 BR
PROB30
TEMPO 1907/1909 0500 FG BKN002
BECMG 1911/1913 34012KT
TEMPO 1911/1918 -SHRA SCT018CB



MET'MAP, la Météo Aéronautique d'un coup d'oeil ! - Copyright ORBIFLY Décembre 2007 - Disclaimer

ORBIFLY MET'MAP TEAM :

Programmation & Développement : Alexandra Zaïnal
Conception & Développement : Baudouin d'Aumeries
Co-Programmation & Développement : Marc-Olivier Méhu
Soutien technique & logistique : Manuel Goepfert

Contact : metmap@orbifly.com




SOURCES & CREDITS :

   NOAA